Haines, AK

8:39 AM AKST on December 03, 2016 (GMT -0900)
Letnikof Cove | | Change Station

Elev 230 ft 59.17 °N, 135.39 °W | Updated 8 seconds ago

Rain
Rain
38.3 °F
Feels Like 32 °F
N
8.7
Wind Variable Wind from SSE
Gusts 11.6 mph

Today
High -- | Low -- °F
--% Chance of Precip.
Yesterday
High -- | Low -- °F
Precip. -- in
Pressure 29.47 in
Visibility 5.0 miles
Clouds Overcast 1300 ft
Windchill 32 °F
Dew Point 38 °F
Humidity 99%
Rainfall 1.22 in
Snow Depth Not available.
8:35 AM 3:07 PM
Waxing Crescent, 16% visible
METAR PAHN 031654Z AUTO 31007KT 280V340 5SM UP BR OVC013 00/M01 A2947 RMK AO2 UPB1556E00B18E27B53FZRAB00E03SNE1556B03E18B27E53 SLP980 P0001 I1000 T00001006 TSNO
Pressure 29.47 in
Visibility 5.0 miles
Clouds Overcast 1300 ft
Windchill 32 °F
Dew Point 38 °F
Humidity 99%
Rainfall 1.22 in
Snow Depth Not available.
8:35 AM 3:07 PM
Waxing Crescent, 16% visible
METAR PAHN 031654Z AUTO 31007KT 280V340 5SM UP BR OVC013 00/M01 A2947 RMK AO2 UPB1556E00B18E27B53FZRAB00E03SNE1556B03E18B27E53 SLP980 P0001 I1000 T00001006 TSNO

10-Day Weather Forecast

Almanac

Astronomy

Dec. 03, 2016 Rise Set
Actual Time
Civil Twilight
Nautical Twilight
Astronomical Twilight
Moon
Length of Visible Light
Length of Day
Tomorrow will be .
, % of the Moon is Illuminated

Today's Extremes

State Highs State Lows

Community

WunderPhotos

Upload Photos

1,955,452 photos uploaded!

WunderBlog® & News

Nearby

Air Quality

  Air Quality AQ Index Pollutant
Not available.

Snow Depth

Station Depth Elevation

Earthquake Activity

City Distance Mag. Time & Date
Minimum magnitude displayed is 2.5.

Coastal Water Temperatures

Place Temperature

Stations

Nearby Weather Stations

Station Location Temp. Windchill Dew Point Humidity Wind Precip. Elev Updated Type
                   

Watches & Warnings

There are currently no watches in effect.